• Join FlightAware (Why Join?)
  • Login
  • US Flag 
05:42PM EDT


 

Airport Tracker/Info


-or-


 

Live Flight TrackerFlight Track Log ✈ SWA1688 ✈ 02-Nov-2013 ✈ KMDW - KSDF

Flight Track Log - Related Links

Times and Time Zones

All times are in EDT time to prevent confusion due to time zone crossing. See the SWA1688 flight status page for this flight to view local times or setup timezone preferences in your user account.

Time Position Orientation Groundspeed Altitude Reporting Facility
EDT Latitude Longitude Course Direction KTS MPH feet Rate Location/Type
06:59PM 41.8000 -87.7833 234° Southwest 150 173 2,100  Level Chicago TRACON
07:00PM 41.7831 -87.8142 234° Southwest 238 274 3,100 2,340 Climbing Chicago Center
07:01PM 41.7206 -87.7986 169° South 243 280 6,500 3,480 Climbing Chicago Center
07:02PM 41.6269 -87.7767 170° South 284 327 10,200 3,060 Climbing Chicago Center
07:03PM 41.5408 -87.7556 170° South 307 353 12,800 2,640 Climbing Chicago Center
07:04PM 41.4444 -87.7294 169° South 344 396 15,700 2,700 Climbing Chicago Center
07:05PM 41.3442 -87.7047 170° South 360 414 18,300 2,580 Climbing Chicago Center
07:06PM 41.2414 -87.6786 169° South 371 427 21,000 2,100 Climbing Chicago Center
07:07PM 41.1361 -87.6519 169° South 379 436 22,700 1,620 Climbing Chicago Center
07:08PM 41.0217 -87.6236 169° South 409 471 24,300 1,560 Climbing Chicago Center
07:09PM 40.9008 -87.5911 169° South 437 503 25,900 1,260 Climbing Chicago Center
07:10PM 40.7722 -87.5592 169° South 463 533 27,000 540 Climbing Chicago Center
07:11PM 40.6394 -87.5267 169° South 480 552 27,000  Level Chicago Center
07:12PM 40.5069 -87.4936 169° South 486 559 27,000  Level Chicago Center
07:13PM 40.3494 -87.4528 169° South 483 556 27,000  Level Chicago Center
07:14PM 40.2133 -87.4256 171° South 482 555 27,000  Level Chicago Center
07:15PM 40.1067 -87.3983 169° South 482 555 27,000  Level Indianapolis Center
07:16PM 39.9761 -87.3669 170° South 481 554 27,000  Level Indianapolis Center
07:17PM 39.8428 -87.3339 169° South 487 560 27,000  Level Indianapolis Center
07:18PM 39.7111 -87.3011 169° South 486 559 27,000  Level Indianapolis Center
07:19PM 39.5756 -87.2694 170° South 495 570 27,000 -240 Level Indianapolis Center
07:20PM 39.4494 -87.2022 158° South 506 582 26,600 -720 Descending Indianapolis Center
07:21PM 39.3503 -87.0794 136° Southeast 498 573 25,600 -1,020 Descending Indianapolis Center
07:22PM 39.2586 -86.9653 136° Southeast 469 540 24,600 -1,440 Descending Indianapolis Center
07:23PM 39.1708 -86.8558 136° Southeast 449 517 22,700 -2,040 Descending Indianapolis Center
07:24PM 39.0861 -86.7531 137° Southeast 427 491 20,600 -2,220 Descending Indianapolis Center
07:25PM 38.9900 -86.6356 136° Southeast 399 459 18,300 -2,040 Descending Indianapolis Center
07:26PM 38.9186 -86.5494 137° Southeast 377 434 16,500 -1,920 Descending Indianapolis Center
07:27PM 38.8431 -86.4572 136° Southeast 362 417 14,400 -2,040 Descending Indianapolis Center
07:28PM 38.7731 -86.3731 137° Southeast 350 403 12,400 -1,860 Descending Indianapolis Center
07:29PM 38.6950 -86.3050 146° Southeast 341 392 10,700 -1,200 Descending Indianapolis Center
07:30PM 38.6122 -86.2414 149° Southeast 344 396 10,000 -360 Descending Indianapolis Center
07:31PM 38.5328 -86.1778 148° Southeast 337 388 10,000  Level Indianapolis Center
07:32PM 38.4517 -86.1192 150° Southeast 334 384 10,000 -300 Level Indianapolis Center
07:33PM 38.3833 -86.0658 149° Southeast 300 345 9,500 -1,200 Descending Indianapolis Center
07:35PM 38.3144 -86.0125 149° Southeast 289 333 7,600 -1,680 Descending Indianapolis Center
07:36PM 38.2436 -85.9603 150° Southeast 291 335 6,100 -1,500 Descending Indianapolis Center
07:37PM 38.1750 -85.9097 150° Southeast 288 331 4,600 -1,380 Descending Indianapolis Center
07:38PM 38.1083 -85.8583 149° Southeast 284 327 3,400 -840 Descending Indianapolis Center
07:39PM 38.0475 -85.8147 151° Southeast 269 310 3,000 -420 Descending Indianapolis Center
07:40PM 38.0236 -85.7461 114° Southeast 237 273 2,600 -480 Descending Indianapolis Center
07:42PM 38.1167 -85.7333 North 124 143 1,400 -540 Descending Louisville TRACON